Latest Weather Observations for Gelantipy

IDV60801

Issued at 10:05 am EDT Saturday 1 November 2014 (issued every 30 minutes, with the page automatically refreshed every 10 minutes)

About weather observations | Map of weather stations | Latest weather observations for VIC | Other Formats
Station Details ID: 084142 Name: GELANTIPY Lat: -37.22 Lon: 148.26 Height: 755.0 m
Data from the previous 72 hours. | See also: Recent months at Gelantipy
Date/Time
EDT
Temp
°C
App
Temp
°C
Dew
Point
Rel
Hum
%
Delta-T
°C
Wind Press
QNH
hPa
Press
MSL
hPa
Rain
since 9 am
mm
Dir
 
Spd
km/h
Gust
km/h
Spd
kts
Gust
kts
01/10:00am 16.4 14.7 8.4 59 4.3 SSW 7 13 4 7 1000.9 1000.0 0.0
01/09:30am 14.4 12.5 7.7 64 3.5 SSW 7 11 4 6 1000.8 999.9 0.0
01/09:00am 14.1 11.6 6.5 60 3.8 S 9 17 5 9 1001.0 1000.1 0.0
01/08:30am 15.1 12.7 7.2 59 4.1 SW 9 15 5 8 1001.1 1000.2 0.0
01/08:00am 14.7 12.0 5.8 55 4.5 SSW 9 17 5 9 1000.3 999.3 0.0
01/07:30am 13.4 11.1 5.6 59 3.8 SSW 7 13 4 7 1000.6 999.6 0.0
01/07:00am 13.5 11.2 5.7 59 3.9 S 7 11 4 6 1001.1 1000.2 0.0
01/06:30am 14.5 11.7 5.0 53 4.6 SSW 9 15 5 8 1001.0 1000.1 0.0
01/06:00am 15.7 12.1 5.0 49 5.3 N 13 17 7 9 1000.4 999.4 0.0
01/05:30am 17.3 12.0 2.9 38 6.9 N 20 28 11 15 1000.1 999.1 0.0
01/05:00am 16.0 10.8 3.4 43 6.1 N 20 28 11 15 999.7 998.8 0.0
01/04:30am 17.3 11.1 2.1 36 7.1 N 24 28 13 15 1000.1 999.1 0.0
01/04:00am 17.1 11.4 2.7 38 6.9 NNE 22 28 12 15 1000.4 999.4 0.0
01/03:30am 19.6 13.5 2.5 32 8.2 N 24 30 13 16 1000.4 999.4 0.0
01/03:00am 20.7 14.0 1.6 28 9.2 N 26 35 14 19 1000.5 999.5 0.0
01/02:30am 22.2 14.2 0.7 24 10.2 N 32 43 17 23 1000.6 999.6 0.0
01/02:00am 22.9 14.9 0.1 22 10.8 N 32 50 17 27 1000.7 999.8 0.0
01/01:55am 22.8 14.7 -0.6 21 11.0 N 32 50 17 27 1000.7 999.8 0.0
01/01:30am 22.2 15.7 0.1 23 10.4 N 24 39 13 21 1001.5 1000.5 0.0
01/01:19am 21.1 15.4 0.3 25 9.7 N 20 39 11 21 1001.8 1000.8 0.0
01/01:00am 15.7 10.8 4.1 46 5.6 NNE 19 22 10 12 1002.3 1001.4 0.0
01/12:30am 15.7 11.3 4.7 48 5.4 NNE 17 19 9 10 1003.1 1002.2 0.0
01/12:00am 16.8 12.5 5.1 46 5.9 N 17 20 9 11 1003.7 1002.8 0.0
 
Date/Time
EDT
Temp
°C
App
Temp
°C
Dew
Point
Rel
Hum
%
Delta-T
°C
Wind Press
QNH
hPa
Press
MSL
hPa
Rain
since 9 am
mm
Dir
 
Spd
km/h
Gust
km/h
Spd
kts
Gust
kts
31/11:30pm 16.6 12.8 5.6 48 5.5 N 15 17 8 9 1004.1 1003.3 0.0
31/11:00pm 17.3 13.0 5.3 45 6.0 N 17 19 9 10 1004.6 1003.7 0.0
31/10:30pm 16.8 12.5 5.4 47 5.7 N 17 20 9 11 1005.0 1004.1 0.0
31/10:00pm 16.2 12.0 5.8 50 5.2 N 17 20 9 11 1005.4 1004.6 0.0
31/09:30pm 17.9 13.5 4.8 42 6.5 N 17 19 9 10 1005.8 1004.9 0.0
31/09:00pm 17.3 13.8 5.6 46 5.9 NNE 13 15 7 8 1005.9 1005.0 0.0
31/08:30pm 18.7 16.0 5.5 42 6.7 N 9 15 5 8 1006.0 1005.1 0.0
31/08:00pm 21.8 17.9 3.5 30 9.2 N 13 17 7 9 1006.2 1005.3 0.0
31/07:30pm 23.1 19.9 3.1 27 10.0 N 9 13 5 7 1006.3 1005.4 0.0
31/07:00pm 23.8 20.5 6.6 33 9.2 NW 13 19 7 10 1006.4 1005.6 0.0
31/06:30pm 23.8 18.4 4.7 29 9.9 NW 22 32 12 17 1006.6 1005.8 0.0
31/06:10pm 24.5 18.0 4.8 28 10.2 NW 28 43 15 23 1006.6 1005.8 0.0
31/06:00pm 24.5 20.4 6.3 31 9.8 NW 17 22 9 12 1006.8 1006.0 0.0
31/05:30pm 24.1 17.4 3.4 26 10.5 NW 28 39 15 21 1006.8 1006.0 0.0
31/05:00pm 23.6 19.2 6.4 33 9.2 NW 19 32 10 17 1006.9 1006.1 0.0
31/04:30pm 23.6 16.6 4.0 28 10.0 NW 30 50 16 27 1007.1 1006.2 0.0
31/04:28pm 23.5 16.2 4.5 29 9.8 NW 32 50 17 27 1007.2 1006.3 0.0
31/04:00pm 23.3 18.1 5.7 32 9.3 NW 22 43 12 23 1007.4 1006.5 0.0
31/03:41pm 23.3 16.1 4.8 30 9.6 NW 32 50 17 27 1007.5 1006.6 0.0
31/03:30pm 23.3 18.9 4.8 30 9.6 NW 17 37 9 20 1007.6 1006.8 0.0
31/03:00pm 23.5 19.8 6.3 33 9.2 WNW 15 35 8 19 1008.0 1007.2 0.0
31/02:30pm 23.4 18.6 7.5 36 8.6 W 22 33 12 18 1008.5 1007.6 0.0
31/02:00pm 23.8 20.0 7.4 35 8.9 W 17 26 9 14 1008.8 1008.0 0.0
31/01:30pm 22.5 17.6 5.0 32 9.0 W 20 32 11 17 1009.3 1008.5 0.0
31/01:00pm 23.6 18.5 7.7 36 8.7 WNW 24 33 13 18 1009.6 1008.8 0.0
31/12:30pm 24.2 19.5 5.1 29 10.0 NW 19 37 10 20 1009.6 1008.8 0.0
31/12:00pm 22.9 17.2 4.9 31 9.3 NW 24 35 13 19 1010.2 1009.4 0.0
31/11:30am 23.0 18.2 4.5 30 9.5 NW 19 30 10 16 1010.4 1009.6 0.0
31/11:00am 22.8 17.8 4.8 31 9.3 NW 20 30 11 16 1010.9 1010.1 0.0
31/10:30am 22.0 16.9 4.1 31 9.0 NNW 20 32 11 17 1011.2 1010.5 0.0
31/10:00am 21.0 16.7 3.2 31 8.8 N 15 24 8 13 1011.6 1010.8 0.0
31/09:30am 18.3 15.2 7.1 48 5.9 NE 13 20 7 11 1011.8 1011.0 0.0
31/09:00am 17.0 13.0 8.9 59 4.4 N 20 28 11 15 1011.9 1011.1 0.2
31/08:30am 17.4 14.3 5.4 45 6.0 NE 11 15 6 8 1012.0 1011.2 0.2
31/08:00am 15.5 12.0 7.3 58 4.2 N 15 19 8 10 1012.1 1011.3 0.2
31/07:30am 14.9 10.2 5.1 52 4.8 N 19 22 10 12 1012.0 1011.2 0.2
31/07:00am 12.6 8.6 5.1 60 3.6 N 15 19 8 10 1011.9 1011.1 0.2
31/06:30am 9.2 6.1 5.6 78 1.7 N 11 17 6 9 1011.8 1011.0 0.2
31/06:00am 6.5 3.9 5.9 96 0.3 N 9 13 5 7 1011.8 1011.0 0.0
31/05:30am 7.1 5.9 6.5 96 0.3 NNE 2 9 1 5 1011.7 1010.9 0.0
31/05:00am 8.2 5.3 8.2 100 0.0 NNE 13 19 7 10 1011.4 1010.6 0.0
31/04:30am 6.6 3.3 6.6 100 0.0 N 13 17 7 9 1011.5 1010.7 0.0
31/04:00am 6.0 3.0 6.0 100 0.0 N 11 15 6 8 1011.9 1011.1 0.0
31/03:30am 5.9 4.9 5.8 99 0.0 CALM 0 2 0 1 1012.3 1011.6 0.0
31/03:00am 6.4 4.4 6.3 99 0.0 NNE 6 9 3 5 1012.4 1011.7 0.0
31/02:30am 7.2 6.5 7.1 99 0.0 CALM 0 4 0 2 1012.5 1011.8 0.0
31/02:00am 8.2 6.6 8.1 99 0.0 NNW 6 6 3 3 1012.9 1012.1 0.0
31/01:30am 8.9 8.7 8.9 100 0.0 CALM 0 0 0 0 1013.3 1012.6 0.0
31/01:00am 9.1 8.5 9.1 100 0.0 N 2 7 1 4 1013.5 1012.8 0.0
31/12:30am 9.2 7.9 9.1 99 0.1 NNW 6 7 3 4 1013.6 1012.9 0.0
31/12:00am 9.6 8.2 9.5 99 0.1 N 7 11 4 6 1013.7 1013.0 0.0
 
Date/Time
EDT
Temp
°C
App
Temp
°C
Dew
Point
Rel
Hum
%
Delta-T
°C
Wind Press
QNH
hPa
Press
MSL
hPa
Rain
since 9 am
mm
Dir
 
Spd
km/h
Gust
km/h
Spd
kts
Gust
kts
30/11:30pm 10.3 9.0 10.0 98 0.2 N 7 9 4 5 1014.0 1013.3 0.0
30/11:00pm 10.8 9.8 10.3 97 0.3 NNW 6 9 3 5 1014.2 1013.4 0.0
30/10:30pm 11.1 11.3 10.5 96 0.3 CALM 0 0 0 0 1014.4 1013.6 0.0
30/10:00pm 11.1 11.2 10.3 95 0.4 CALM 0 0 0 0 1014.5 1013.8 0.0
30/09:30pm 11.3 11.1 10.4 94 0.5 S 2 6 1 3 1014.8 1014.1 0.0
30/09:00pm 11.4 10.5 10.6 95 0.4 SW 6 9 3 5 1014.7 1014.0 0.0
30/08:30pm 11.3 10.3 10.4 94 0.5 SW 6 9 3 5 1014.6 1013.9 0.0
30/08:00pm 11.4 9.9 10.5 94 0.5 SW 9 13 5 7 1014.7 1014.0 0.0
30/07:30pm 12.2 10.7 10.4 89 1.0 SSW 9 13 5 7 1014.3 1013.5 0.0
30/07:00pm 13.9 12.2 11.1 83 1.5 SW 11 17 6 9 1013.9 1013.2 0.0
30/06:30pm 15.3 13.4 11.9 80 1.9 SSW 13 20 7 11 1013.6 1012.9 0.0
30/06:00pm 16.4 14.7 12.4 77 2.3 SSW 13 20 7 11 1013.3 1012.6 0.0
30/05:30pm 17.6 16.4 12.9 74 2.7 SSW 11 20 6 11 1012.6 1011.9 0.0
30/05:00pm 18.7 17.6 13.1 70 3.3 S 11 17 6 9 1012.2 1011.5 0.0
30/04:30pm 19.1 17.7 13.5 70 3.3 S 13 20 7 11 1011.9 1011.1 0.0
30/04:00pm 19.9 18.6 13.6 67 3.7 S 13 20 7 11 1011.8 1011.0 0.0
30/03:30pm 20.2 18.6 12.7 62 4.4 S 13 19 7 10 1012.0 1011.2 0.0
30/03:00pm 21.4 18.9 8.3 43 7.1 WSW 11 20 6 11 1012.1 1011.3 0.0
30/02:30pm 21.5 18.8 10.3 49 6.3 W 15 19 8 10 1012.4 1011.7 0.0
30/02:00pm 21.3 16.7 8.2 43 7.1 WNW 22 35 12 19 1012.6 1011.9 0.0
30/01:30pm 21.2 17.1 8.8 45 6.8 WNW 20 30 11 16 1012.8 1012.0 0.0
30/01:00pm 20.5 15.7 5.7 38 7.6 W 20 33 11 18 1013.0 1012.2 0.0
30/12:30pm 20.0 16.3 8.0 46 6.4 W 17 28 9 15 1013.1 1012.3 0.0
30/12:00pm 19.5 16.2 6.6 43 6.7 SW 13 24 7 13 1013.5 1012.8 0.0
30/11:30am 18.9 15.9 7.7 48 5.9 WSW 13 22 7 12 1013.9 1013.2 0.0
30/11:00am 18.2 14.7 8.7 54 5.1 W 17 24 9 13 1014.4 1013.6 0.0
30/10:30am 17.8 13.7 7.8 52 5.3 W 19 30 10 16 1014.5 1013.8 0.0
30/10:00am 17.1 12.8 7.7 54 4.9 W 20 30 11 16 1014.6 1013.9 0.0
30/09:30am 16.7 13.6 5.6 48 5.6 W 11 19 6 10 1014.5 1013.8 0.0
30/09:00am 15.9 12.7 5.2 49 5.3 NNW 11 19 6 10 1014.2 1013.4 0.0
30/08:30am 14.8 13.5 9.8 72 2.7 N 7 13 4 7 1014.3 1013.5 0.0
30/08:00am 13.5 11.8 8.4 71 2.7 NNE 7 11 4 6 1014.4 1013.6 0.0
30/07:30am 10.6 9.3 7.7 82 1.5 E 4 9 2 5 1014.5 1013.8 0.0
30/07:00am 8.7 6.2 6.5 86 1.1 NNE 9 13 5 7 1014.3 1013.5 0.0
30/06:30am 8.2 5.5 5.8 85 1.1 NNE 9 13 5 7 1014.2 1013.4 0.0
30/06:00am 8.2 5.5 5.5 83 1.3 NNE 9 15 5 8 1013.8 1013.1 0.0
30/05:30am 8.3 5.9 5.4 82 1.4 NNE 7 9 4 5 1013.8 1013.1 0.0
30/05:00am 8.6 6.3 5.9 83 1.3 N 7 13 4 7 1013.9 1013.2 0.0
30/04:30am 7.9 5.2 5.7 86 1.0 NNE 9 15 5 8 1013.7 1013.0 0.0
30/04:00am 7.8 4.3 5.6 86 1.0 N 13 15 7 8 1013.8 1013.1 0.0
30/03:30am 8.1 4.4 6.4 89 0.8 N 15 17 8 9 1013.9 1013.2 0.0
30/03:00am 8.3 4.7 6.6 89 0.8 N 15 19 8 10 1014.3 1013.5 0.0
30/02:30am 7.7 4.3 6.0 89 0.8 N 13 15 7 8 1014.4 1013.6 0.0
30/02:00am 8.4 5.5 6.7 89 0.8 N 11 15 6 8 1014.7 1014.0 0.0
30/01:30am 7.4 4.5 6.5 94 0.4 N 11 15 6 8 1014.9 1014.2 0.0
30/01:00am 6.2 3.5 5.8 97 0.2 NNE 9 11 5 6 1015.3 1014.6 0.0
30/12:30am 6.9 5.0 6.5 97 0.2 N 6 7 3 4 1015.9 1015.2 0.0
30/12:00am 6.8 4.6 6.2 96 0.3 NNE 7 9 4 5 1016.2 1015.5 0.0
 
Date/Time
EDT
Temp
°C
App
Temp
°C
Dew
Point
Rel
Hum
%
Delta-T
°C
Wind Press
QNH
hPa
Press
MSL
hPa
Rain
since 9 am
mm
Dir
 
Spd
km/h
Gust
km/h
Spd
kts
Gust
kts
29/11:30pm 7.1 5.2 6.5 96 0.3 NE 6 7 3 4 1016.3 1015.6 0.0
29/11:00pm 7.4 6.1 6.2 92 0.6 NW 2 6 1 3 1016.3 1015.6 0.0
29/10:30pm 8.3 7.7 7.4 94 0.4 CALM 0 0 0 0 1016.4 1015.7 0.0
29/10:00pm 8.5 7.6 7.6 94 0.4 WSW 2 6 1 3 1016.8 1016.2 0.0
29/09:30pm 8.8 7.1 7.6 92 0.6 SSW 6 6 3 3 1016.7 1016.1 0.0
29/09:00pm 9.3 7.4 7.7 90 0.8 SSW 7 11 4 6 1016.6 1015.9 0.0
29/08:30pm 9.8 7.7 8.1 89 0.9 SW 9 13 5 7 1016.2 1015.5 0.0
29/08:00pm 10.7 8.7 8.5 86 1.1 SSW 9 15 5 8 1015.9 1015.2 0.0
29/07:30pm 12.0 9.7 9.0 82 1.6 SSW 11 19 6 10 1015.4 1014.7 0.0
29/07:00pm 13.6 11.0 9.5 76 2.2 SSW 13 20 7 11 1014.9 1014.2 0.0
29/06:30pm 15.2 12.8 10.2 72 2.7 SSW 13 20 7 11 1014.6 1013.9 0.0
29/06:00pm 17.0 15.2 9.4 61 4.1 S 9 15 5 8 1014.4 1013.6 0.0
29/05:30pm 17.8 16.2 10.2 61 4.2 SSW 9 17 5 9 1014.0 1013.3 0.0
29/05:00pm 17.9 15.9 8.7 55 4.9 S 9 13 5 7 1013.9 1013.2 0.0
29/04:30pm 17.7 15.7 8.6 55 4.9 S 9 13 5 7 1014.0 1013.3 0.0
29/04:00pm 17.7 15.7 8.6 55 4.9 S 9 17 5 9 1014.2 1013.4 0.0
29/03:30pm 17.6 15.2 8.7 56 4.8 SSE 11 17 6 9 1014.3 1013.5 0.0
29/03:00pm 17.3 14.3 7.6 53 5.1 S 13 20 7 11 1014.6 1013.9 0.0
29/02:30pm 16.9 14.5 8.6 58 4.4 S 11 17 6 9 1015.0 1014.3 0.0
29/02:00pm 16.7 15.0 8.4 58 4.4 SSE 7 15 4 8 1015.4 1014.7 0.0
29/01:30pm 15.6 12.6 6.1 53 4.8 SSE 11 15 6 8 1015.7 1015.0 0.0
29/01:00pm 15.2 12.5 7.2 59 4.1 SSE 11 17 6 9 1016.0 1015.3 0.0
29/12:30pm 15.3 14.0 7.8 61 3.9 W 4 9 2 5 1016.4 1015.7 0.0
29/12:00pm 14.5 12.1 7.1 61 3.8 S 9 15 5 8 1016.8 1016.2 0.0
29/11:30am 13.5 11.0 6.6 63 3.5 E 9 15 5 8 1017.1 1016.4 0.0
29/11:00am 12.8 10.8 6.4 65 3.2 SE 6 9 3 5 1017.5 1016.8 0.0
29/10:30am 11.7 9.7 6.4 70 2.6 NW 6 11 3 6 1017.6 1016.9 0.0

Other Formats:

Comma delimited format used in spreadsheet applications
http://www.bom.gov.au/fwo/IDV60801/IDV60801.94913.axf

JavaScript Object Notation format (JSON) in row-major order
http://www.bom.gov.au/fwo/IDV60801/IDV60801.94913.json